Rapid City Regional Airport
KRAP : now visible

Airfield :











YOU CAN JOIN US ON...

 
LOGIN :

Register | Disclaimer

   EN    FR    IT 

 









Legend :    VFR   Marginal VFR   IFR   Intensive IFR   Very Intensive IFR
Visi :
Ceiling :
>= 8 km
>= 3000ft
5 to 8 km
1000 to 3000 ft
1500m to 5 km
500 to 1000 ft
800 to 1500m
200 to 500 ft
< 800m
< 200 ft
Symbols :   Thunderstorms  Fog  Heavy snow  Heavy precipitations  Wind > 20 kt






- Airport Elevation : 3204 ft
- IATA code : RAP


KRAP - Rapid City Regional

CURRENT METAR :
  • 260052Z 00000KT 10SM FEW095 16/06 A3002 RMK AO2 SLP165 T01560056 $

EXPIRED METARs :
  • 252352Z 06003KT 10SM SCT070 OVC095 16/06 A3002 RMK AO2 SLP168 60000 T01560056 10178 20139 58005 $
  • 252252Z 00000KT 10SM BKN060 OVC075 16/06 A3004 RMK AO2 RAB33E44 SLP171 P0000 T01560056 $

TAF KRAP
Valid from the 26 at 00:00 until the 27 at 00:00 UTC


252320Z 2600/2624 35009KT P6SM VCSH BKN060
FM260200 VRB05KT P6SM SCT100
KZDV FIR / North America



MET'MAP, your aeronautical weather chart ! - Copyright ORBIFLY December 2007 - Disclaimer

ORBIFLY MET'MAP TEAM :

Programming & Development : Alexandra Zaïnal
Concept & original design : Baudouin d'Aumeries
Assistance for programming : Marc-Olivier Méhu
Technical & hardware support : Manuel Goepfert

Contact : metmap@orbifly.com




SOURCES & CREDITS :

   NOAA       Earth
Advisory